createdAt,value
2023-01-25T00:01:06.131Z,28.73
2023-01-25T00:03:32.702Z,30.38
2023-01-25T00:06:01.373Z,32.78
2023-01-25T00:08:28.189Z,32.38
2023-01-25T00:10:56.287Z,40.03
2023-01-25T00:13:23.939Z,36.13
2023-01-25T00:15:50.305Z,34.75
2023-01-25T00:18:16.683Z,33.25
2023-01-25T00:20:43.057Z,31.02
2023-01-25T00:23:09.433Z,32.53
2023-01-25T00:25:35.882Z,38.70
2023-01-25T00:28:02.264Z,47.42
2023-01-25T00:30:28.632Z,36.22
2023-01-25T00:33:33.006Z,35.35
2023-01-25T00:36:00.988Z,32.78
2023-01-25T00:38:34.469Z,31.77
2023-01-25T00:41:00.869Z,35.70
2023-01-25T00:43:27.246Z,31.92
2023-01-25T00:46:00.665Z,30.63
2023-01-25T00:48:27.067Z,31.52
2023-01-25T00:50:53.458Z,33.75
2023-01-25T00:53:19.834Z,31.92
2023-01-25T00:55:53.015Z,32.45
2023-01-25T00:58:19.404Z,31.23
2023-01-25T01:00:45.848Z,26.98
2023-01-25T01:03:12.352Z,32.33
2023-01-25T01:05:38.750Z,30.88
2023-01-25T01:08:05.200Z,32.63
2023-01-25T01:10:31.574Z,32.30
2023-01-25T01:12:58.030Z,35.50
2023-01-25T01:15:24.402Z,30.85
2023-01-25T01:17:50.807Z,32.47
2023-01-25T01:20:17.173Z,34.72
2023-01-25T01:22:43.579Z,33.75
2023-01-25T01:25:10.887Z,33.13
2023-01-25T01:27:37.294Z,33.70
2023-01-25T01:30:04.039Z,30.17
2023-01-25T01:32:30.588Z,31.55
2023-01-25T01:34:57.036Z,32.67
2023-01-25T01:37:23.454Z,30.50
2023-01-25T01:39:49.824Z,31.05
2023-01-25T01:42:16.225Z,33.67
2023-01-25T01:44:51.015Z,33.63
2023-01-25T01:47:27.467Z,30.70
2023-01-25T01:49:57.166Z,34.60
2023-01-25T01:52:28.716Z,37.20
2023-01-25T01:55:18.096Z,32.55
2023-01-25T01:57:48.431Z,36.92
2023-01-25T02:00:21.298Z,34.90
2023-01-25T02:02:49.312Z,35.88
2023-01-25T02:05:30.697Z,40.35
2023-01-25T02:07:57.576Z,35.22
2023-01-25T02:10:25.729Z,37.30
2023-01-25T02:12:54.409Z,35.83
2023-01-25T02:15:20.900Z,38.95
2023-01-25T02:17:47.598Z,36.75
2023-01-25T02:20:37.436Z,35.47
2023-01-25T02:23:12.431Z,36.95
2023-01-25T02:25:39.990Z,36.42
2023-01-25T02:28:06.598Z,37.08
2023-01-25T02:30:33.931Z,35.63
2023-01-25T02:36:47.331Z,40.85
2023-01-25T02:39:20.063Z,42.35
2023-01-25T02:41:50.060Z,43.20
2023-01-25T02:44:20.339Z,40.47
2023-01-25T02:46:47.797Z,39.17
2023-01-25T02:49:15.224Z,40.40
2023-01-25T02:51:50.714Z,42.22
2023-01-25T02:54:18.442Z,60.10
2023-01-25T02:56:44.793Z,50.60
2023-01-25T02:59:13.208Z,48.83
2023-01-25T03:01:41.864Z,44.03
2023-01-25T03:04:08.832Z,45.58
2023-01-25T03:06:35.575Z,39.72
2023-01-25T03:09:03.773Z,44.60
2023-01-25T03:11:30.145Z,44.65
2023-01-25T03:13:56.489Z,43.97
2023-01-25T03:16:22.923Z,42.40
2023-01-25T03:18:54.050Z,42.85
2023-01-25T03:21:21.763Z,41.88
2023-01-25T03:23:48.870Z,45.55
2023-01-25T03:26:19.691Z,44.15
2023-01-25T03:28:46.178Z,47.35
2023-01-25T03:31:14.380Z,44.88
2023-01-25T03:33:41.158Z,44.17
2023-01-25T03:36:08.217Z,47.70
2023-01-25T03:38:35.344Z,42.50
2023-01-25T03:41:02.142Z,42.90
2023-01-25T03:43:29.133Z,46.40
2023-01-25T03:45:57.897Z,47.10
2023-01-25T03:48:25.086Z,94.45
2023-01-25T03:50:57.608Z,92.78
2023-01-25T03:53:30.013Z,59.50
2023-01-25T03:55:59.002Z,47.55
2023-01-25T03:58:25.772Z,50.30
2023-01-25T04:00:55.001Z,47.10
2023-01-25T04:03:21.594Z,46.30
2023-01-25T04:05:48.075Z,46.00
2023-01-25T04:08:14.798Z,45.35
2023-01-25T04:10:41.193Z,45.17
2023-01-25T04:13:07.683Z,44.22
2023-01-25T04:15:34.141Z,45.10
2023-01-25T04:18:00.750Z,49.08
2023-01-25T04:20:27.138Z,45.08
2023-01-25T04:22:53.501Z,41.50
2023-01-25T04:25:19.945Z,47.28
2023-01-25T04:27:46.544Z,50.25
2023-01-25T04:30:13.130Z,50.80
2023-01-25T04:32:39.644Z,52.72
2023-01-25T04:35:06.255Z,54.28
2023-01-25T04:37:32.671Z,50.58
2023-01-25T04:39:59.081Z,49.40
2023-01-25T04:42:26.613Z,54.00
2023-01-25T04:44:53.001Z,47.53
2023-01-25T04:47:19.403Z,52.25
2023-01-25T04:49:45.817Z,52.28
2023-01-25T04:52:12.180Z,51.92
2023-01-25T04:54:38.637Z,51.92
2023-01-25T04:57:05.444Z,50.40
2023-01-25T04:59:31.899Z,50.65
2023-01-25T05:01:58.352Z,51.58
2023-01-25T05:04:24.786Z,51.95
2023-01-25T05:06:51.165Z,50.10
2023-01-25T05:09:17.642Z,57.15
2023-01-25T05:11:44.080Z,45.72
2023-01-25T05:14:10.559Z,63.15
2023-01-25T05:16:36.985Z,50.38
2023-01-25T05:19:03.682Z,49.05
2023-01-25T05:21:48.675Z,46.42
2023-01-25T05:24:15.150Z,51.35
2023-01-25T05:27:00.204Z,50.97
2023-01-25T05:29:31.509Z,52.80
2023-01-25T05:31:58.832Z,48.17
2023-01-25T05:34:26.096Z,50.80
2023-01-25T05:36:52.623Z,54.50
2023-01-25T05:39:19.012Z,51.60
2023-01-25T05:41:45.381Z,47.92
2023-01-25T05:44:11.926Z,57.08
2023-01-25T05:46:38.360Z,51.22
2023-01-25T05:49:05.170Z,55.83
2023-01-25T05:51:31.589Z,53.65
2023-01-25T05:53:58.345Z,55.45
2023-01-25T05:56:24.868Z,57.72
2023-01-25T05:58:57.952Z,56.95
2023-01-25T06:01:25.558Z,53.30
2023-01-25T06:03:52.379Z,58.42
2023-01-25T06:06:18.796Z,61.83
2023-01-25T06:08:45.225Z,59.42
2023-01-25T06:11:14.564Z,58.00
2023-01-25T06:13:41.957Z,57.95
2023-01-25T06:16:09.000Z,57.95
2023-01-25T06:18:35.830Z,60.05
2023-01-25T06:21:03.010Z,53.90
2023-01-25T06:23:30.053Z,58.20
2023-01-25T06:26:08.049Z,58.63
2023-01-25T06:28:36.141Z,58.20
2023-01-25T06:31:08.628Z,60.70
2023-01-25T06:33:35.669Z,61.53
2023-01-25T06:36:06.342Z,59.03
2023-01-25T06:38:33.487Z,61.75
2023-01-25T06:41:01.308Z,62.85
2023-01-25T06:43:28.355Z,63.08
2023-01-25T06:45:58.580Z,65.10
2023-01-25T06:48:25.469Z,60.20
2023-01-25T06:50:57.102Z,60.25
2023-01-25T06:53:28.488Z,58.58
2023-01-25T06:56:02.395Z,61.97
2023-01-25T06:58:29.585Z,59.83
2023-01-25T07:01:04.007Z,58.00
2023-01-25T07:03:30.872Z,54.75
2023-01-25T07:06:00.872Z,55.95
2023-01-25T07:08:28.175Z,55.63
2023-01-25T07:10:56.570Z,55.97
2023-01-25T07:13:24.557Z,58.20
2023-01-25T07:15:54.958Z,61.70
2023-01-25T07:18:21.397Z,62.50
2023-01-25T07:20:47.904Z,56.70
2023-01-25T07:23:14.274Z,59.97
2023-01-25T07:25:45.656Z,59.65
2023-01-25T07:28:12.060Z,58.03
2023-01-25T07:30:38.518Z,58.90
2023-01-25T07:33:04.873Z,59.22
2023-01-25T07:35:32.287Z,57.13
2023-01-25T07:37:58.816Z,56.22
2023-01-25T07:40:25.333Z,57.20
2023-01-25T07:42:52.240Z,49.88
2023-01-25T07:45:19.119Z,53.05
2023-01-25T07:47:45.515Z,51.83
2023-01-25T07:50:12.113Z,56.85
2023-01-25T07:52:38.750Z,52.75
2023-01-25T07:55:05.725Z,57.83
2023-01-25T07:57:32.117Z,57.38
2023-01-25T07:59:58.502Z,55.47
2023-01-25T08:02:24.992Z,51.97
2023-01-25T08:04:51.996Z,59.65
2023-01-25T08:07:20.069Z,59.75
2023-01-25T08:09:46.444Z,56.00
2023-01-25T08:12:12.860Z,55.75
2023-01-25T08:14:39.256Z,57.42
2023-01-25T08:17:05.640Z,56.47
2023-01-25T08:19:32.053Z,57.50
2023-01-25T08:21:58.440Z,57.67
2023-01-25T08:24:25.642Z,55.47
2023-01-25T08:26:52.367Z,57.90
2023-01-25T08:29:18.841Z,61.20
2023-01-25T08:31:45.382Z,52.47
2023-01-25T08:34:11.973Z,54.05
2023-01-25T08:36:38.416Z,52.83
2023-01-25T08:39:07.256Z,56.67
2023-01-25T08:41:35.284Z,53.80
2023-01-25T08:44:01.765Z,53.20
2023-01-25T08:46:31.595Z,53.75
2023-01-25T08:48:59.700Z,66.40
2023-01-25T08:51:26.688Z,61.05
2023-01-25T08:53:53.073Z,61.67
2023-01-25T08:56:19.795Z,54.55
2023-01-25T08:58:47.790Z,60.58
2023-01-25T09:01:16.380Z,62.03
2023-01-25T09:03:44.923Z,59.33
2023-01-25T09:06:11.844Z,56.58
2023-01-25T09:08:38.465Z,56.92
2023-01-25T09:11:09.916Z,54.75
2023-01-25T09:13:36.332Z,65.43
2023-01-25T09:16:08.231Z,55.83
2023-01-25T09:18:35.869Z,60.85
2023-01-25T09:21:07.165Z,64.68
2023-01-25T09:23:40.060Z,57.53
2023-01-25T09:26:17.867Z,62.88
2023-01-25T09:28:50.843Z,57.28
2023-01-25T09:31:22.127Z,66.40
2023-01-25T09:33:50.694Z,61.47
2023-01-25T09:36:17.119Z,61.17
2023-01-25T09:38:43.509Z,62.05
2023-01-25T09:41:33.668Z,62.28
2023-01-25T09:44:35.600Z,64.32
2023-01-25T09:47:05.792Z,51.13
2023-01-25T09:49:51.007Z,63.25
2023-01-25T09:52:31.003Z,68.18
2023-01-25T09:54:57.838Z,63.33
2023-01-25T09:57:31.991Z,64.88
2023-01-25T10:00:02.079Z,70.72
2023-01-25T10:02:36.944Z,63.05
2023-01-25T10:05:15.736Z,67.45
2023-01-25T10:08:03.319Z,71.80
2023-01-25T10:10:36.549Z,63.92
2023-01-25T10:13:03.089Z,64.50
2023-01-25T10:15:32.964Z,63.13
2023-01-25T10:18:04.169Z,74.13
2023-01-25T10:20:40.818Z,68.32
2023-01-25T10:23:19.299Z,70.53
2023-01-25T10:25:49.956Z,73.00
2023-01-25T10:28:31.418Z,66.03
2023-01-25T10:31:05.509Z,71.47
2023-01-25T10:33:36.654Z,70.82
2023-01-25T10:36:04.800Z,62.47
2023-01-25T10:38:37.917Z,72.18
2023-01-25T10:41:12.334Z,76.35
2023-01-25T10:43:38.978Z,75.07
2023-01-25T10:46:18.215Z,68.43
2023-01-25T10:48:44.627Z,64.80
2023-01-25T10:51:29.025Z,73.63
2023-01-25T10:54:01.598Z,69.10
2023-01-25T10:56:28.394Z,72.20
2023-01-25T10:59:07.382Z,69.07
2023-01-25T11:01:36.272Z,70.90
2023-01-25T11:04:03.272Z,77.28
2023-01-25T11:06:46.566Z,87.30
2023-01-25T11:09:34.474Z,80.57
2023-01-25T11:12:03.918Z,75.28
2023-01-25T11:14:31.993Z,76.53
2023-01-25T11:16:59.939Z,84.32
2023-01-25T11:19:36.351Z,86.03
2023-01-25T11:22:24.482Z,85.95
2023-01-25T11:24:50.980Z,89.53
2023-01-25T11:27:25.124Z,85.03
2023-01-25T11:30:11.196Z,92.00
2023-01-25T11:32:41.370Z,98.90
2023-01-25T11:35:22.709Z,94.97
2023-01-25T11:38:07.874Z,96.75
2023-01-25T11:40:40.361Z,90.82
2023-01-25T11:43:42.323Z,95.25
2023-01-25T11:46:13.741Z,87.68
2023-01-25T11:48:58.980Z,84.47
2023-01-25T11:51:32.422Z,83.07
2023-01-25T11:54:26.641Z,86.35
2023-01-25T11:57:02.160Z,80.57
2023-01-25T11:59:54.147Z,84.13
2023-01-25T12:02:53.779Z,74.90
2023-01-25T12:05:57.213Z,86.00
2023-01-25T12:08:44.877Z,87.90
2023-01-25T12:11:26.317Z,87.30
2023-01-25T12:14:09.361Z,86.93
2023-01-25T12:16:47.744Z,95.80
2023-01-25T12:19:34.283Z,80.88
2023-01-25T12:22:38.127Z,80.68
2023-01-25T12:25:36.864Z,78.85
2023-01-25T12:28:14.105Z,77.03
2023-01-25T12:31:00.976Z,82.72
2023-01-25T12:33:38.734Z,75.82
2023-01-25T12:36:11.791Z,75.72
2023-01-25T12:38:43.014Z,76.80
2023-01-25T12:41:30.554Z,82.47
2023-01-25T12:44:02.994Z,77.63
2023-01-25T12:46:55.762Z,83.40
2023-01-25T12:49:31.183Z,76.85
2023-01-25T12:52:00.339Z,83.07
2023-01-25T12:54:36.224Z,83.40
2023-01-25T12:57:25.840Z,77.63
2023-01-25T13:00:31.266Z,82.85
2023-01-25T13:03:36.564Z,71.72
2023-01-25T13:06:17.292Z,76.25
2023-01-25T13:08:52.591Z,70.40
2023-01-25T13:11:23.349Z,83.35
2023-01-25T13:13:49.981Z,77.57
2023-01-25T13:16:33.668Z,76.63
2023-01-25T13:19:00.161Z,66.28
2023-01-25T13:21:44.941Z,75.88
2023-01-25T13:24:15.806Z,74.30
2023-01-25T13:26:52.826Z,76.78
2023-01-25T13:29:49.126Z,72.43
2023-01-25T13:32:24.627Z,75.38
2023-01-25T13:34:51.005Z,77.38
2023-01-25T13:37:29.472Z,78.18
2023-01-25T13:39:58.219Z,69.47
2023-01-25T13:42:26.859Z,77.32
2023-01-25T13:45:00.153Z,73.95
2023-01-25T13:47:29.954Z,80.00
2023-01-25T13:49:59.300Z,73.78
2023-01-25T13:52:26.958Z,70.00
2023-01-25T13:54:57.509Z,71.68
2023-01-25T13:57:26.860Z,67.15
2023-01-25T14:00:11.501Z,63.15
2023-01-25T14:02:39.424Z,64.13
2023-01-25T14:05:07.827Z,66.78
2023-01-25T14:07:36.909Z,59.83
2023-01-25T14:10:08.913Z,62.67
2023-01-25T14:15:32.203Z,59.55
2023-01-25T14:18:19.195Z,57.47
2023-01-25T14:20:50.812Z,60.65
2023-01-25T14:23:27.392Z,57.97
2023-01-25T14:25:55.177Z,61.65
2023-01-25T14:28:21.942Z,58.60
2023-01-25T14:30:53.317Z,55.55
2023-01-25T14:33:26.364Z,58.72
2023-01-25T14:35:57.329Z,55.80
2023-01-25T14:38:31.030Z,62.20
2023-01-25T14:41:20.549Z,67.68
2023-01-25T14:43:52.813Z,65.18
2023-01-25T14:48:47.020Z,63.22
2023-01-25T14:51:31.677Z,63.30
2023-01-25T14:54:05.034Z,74.95
2023-01-25T14:56:35.336Z,69.47
2023-01-25T14:59:01.955Z,74.88
2023-01-25T15:01:41.236Z,72.95
2023-01-25T15:04:12.557Z,71.22
2023-01-25T15:07:16.692Z,67.80
2023-01-25T15:10:01.447Z,70.07
2023-01-25T15:12:30.269Z,67.43
2023-01-25T15:14:57.759Z,64.93
2023-01-25T15:17:42.940Z,74.45
2023-01-25T15:20:38.396Z,79.28
2023-01-25T15:23:24.252Z,74.55
2023-01-25T15:25:50.603Z,70.88
2023-01-25T15:28:16.987Z,77.15
2023-01-25T15:30:43.482Z,73.70
2023-01-25T15:33:29.099Z,78.35
2023-01-25T15:35:55.930Z,77.32
2023-01-25T15:38:22.576Z,83.38
2023-01-25T15:40:49.170Z,69.55
2023-01-25T15:43:17.406Z,74.15
2023-01-25T15:45:44.844Z,80.95
2023-01-25T15:48:16.654Z,73.20
2023-01-25T15:50:43.110Z,76.00
2023-01-25T15:53:16.885Z,75.07
2023-01-25T15:55:45.044Z,72.18
2023-01-25T15:58:14.853Z,80.38
2023-01-25T16:00:41.841Z,84.72
2023-01-25T16:03:08.444Z,72.75
2023-01-25T16:05:34.873Z,85.00
2023-01-25T16:08:01.241Z,79.50
2023-01-25T16:10:27.664Z,84.95
2023-01-25T16:12:54.107Z,80.25
2023-01-25T16:15:20.503Z,81.72
2023-01-25T16:17:46.933Z,80.22
2023-01-25T16:20:16.926Z,86.80
2023-01-25T16:22:43.347Z,87.50
2023-01-25T16:25:09.890Z,86.78
2023-01-25T16:27:36.343Z,81.88
2023-01-25T16:30:04.535Z,90.82
2023-01-25T16:32:30.921Z,89.72
2023-01-25T16:34:57.295Z,83.35
2023-01-25T16:37:23.763Z,84.88
2023-01-25T16:39:52.467Z,73.70
2023-01-25T16:42:20.626Z,87.70
2023-01-25T16:44:49.008Z,85.10
2023-01-25T16:47:15.495Z,88.53
2023-01-25T16:49:41.875Z,92.22
2023-01-25T16:52:10.725Z,89.18
2023-01-25T16:54:37.322Z,82.45
2023-01-25T16:57:15.082Z,84.28
2023-01-25T17:02:12.823Z,82.38
2023-01-25T17:04:39.291Z,78.53
2023-01-25T17:07:05.895Z,82.40
2023-01-25T17:09:32.477Z,80.65
2023-01-25T17:11:58.873Z,84.60
2023-01-25T17:14:25.264Z,85.43
2023-01-25T17:16:55.333Z,92.20
2023-01-25T17:19:21.825Z,87.47
2023-01-25T17:21:48.432Z,92.03
2023-01-25T17:24:17.376Z,93.90
2023-01-25T17:26:43.858Z,88.13
2023-01-25T17:29:10.360Z,91.85
2023-01-25T17:31:37.579Z,96.25
2023-01-25T17:34:07.350Z,89.13
2023-01-25T17:36:34.209Z,90.25
2023-01-25T17:39:04.976Z,98.45
2023-01-25T17:41:31.892Z,96.88
2023-01-25T17:43:58.391Z,94.80
2023-01-25T17:46:30.070Z,97.25
2023-01-25T17:48:57.492Z,104.97
2023-01-25T17:51:25.146Z,98.80
2023-01-25T17:53:52.885Z,102.68
2023-01-25T17:56:20.021Z,101.13
2023-01-25T17:58:46.774Z,103.15
2023-01-25T18:01:20.404Z,101.35
2023-01-25T18:03:47.838Z,104.38
2023-01-25T18:06:18.825Z,103.10
2023-01-25T18:08:48.100Z,101.68
2023-01-25T18:11:16.847Z,110.93
2023-01-25T18:13:45.894Z,104.30
2023-01-25T18:16:12.635Z,108.10
2023-01-25T18:18:40.404Z,97.03
2023-01-25T18:21:09.666Z,98.00
2023-01-25T18:23:37.240Z,100.63
2023-01-25T18:26:05.434Z,105.05
2023-01-25T18:28:32.543Z,110.05
2023-01-25T18:31:01.232Z,114.20
2023-01-25T18:33:27.759Z,108.70
2023-01-25T18:35:55.104Z,105.43
2023-01-25T18:38:21.500Z,108.43
2023-01-25T18:40:47.972Z,118.15
2023-01-25T18:43:16.403Z,120.10
2023-01-25T18:45:43.804Z,118.55
2023-01-25T18:48:13.233Z,111.13
2023-01-25T18:50:41.203Z,119.13
2023-01-25T18:53:09.317Z,117.28
2023-01-25T18:55:36.778Z,100.63
2023-01-25T18:58:04.423Z,106.68
2023-01-25T19:00:34.796Z,110.60
2023-01-25T19:03:01.228Z,104.82
2023-01-25T19:05:27.717Z,115.90
2023-01-25T19:07:54.239Z,116.03
2023-01-25T19:10:20.684Z,113.05
2023-01-25T19:12:47.139Z,109.60
2023-01-25T19:15:13.660Z,108.13
2023-01-25T19:17:40.079Z,110.25
2023-01-25T19:20:06.802Z,111.38
2023-01-25T19:22:33.435Z,111.60
2023-01-25T19:24:59.827Z,115.22
2023-01-25T19:27:26.888Z,106.47
2023-01-25T19:29:53.313Z,119.55
2023-01-25T19:32:19.836Z,120.90
2023-01-25T19:34:46.305Z,108.97
2023-01-25T19:37:12.692Z,112.95
2023-01-25T19:39:39.050Z,110.32
2023-01-25T19:42:06.832Z,117.38
2023-01-25T19:44:33.196Z,115.20
2023-01-25T19:46:59.560Z,111.88
2023-01-25T19:49:26.005Z,120.05
2023-01-25T19:51:55.167Z,111.07
2023-01-25T19:54:22.902Z,114.03
2023-01-25T19:56:49.603Z,114.47
2023-01-25T19:59:18.572Z,121.10
2023-01-25T20:01:46.087Z,111.20
2023-01-25T20:04:14.709Z,124.97
2023-01-25T20:06:41.745Z,124.97
2023-01-25T20:09:08.466Z,114.50
2023-01-25T20:11:34.915Z,115.40
2023-01-25T20:14:03.698Z,116.85
2023-01-25T20:16:32.120Z,110.88
2023-01-25T20:18:59.356Z,113.55
2023-01-25T20:21:26.821Z,111.85
2023-01-25T20:23:57.915Z,103.68
2023-01-25T20:26:33.181Z,99.80
2023-01-25T20:29:00.249Z,114.68
2023-01-25T20:31:29.474Z,110.85
2023-01-25T20:34:01.644Z,104.38
2023-01-25T20:36:28.763Z,118.65
2023-01-25T20:38:55.420Z,113.95
2023-01-25T20:41:22.340Z,116.35
2023-01-25T20:43:53.787Z,118.18
2023-01-25T20:46:21.568Z,118.93
2023-01-25T20:48:48.346Z,119.85
2023-01-25T20:51:16.919Z,117.63
2023-01-25T20:53:45.026Z,110.15
2023-01-25T20:56:13.049Z,114.22
2023-01-25T20:58:39.620Z,117.45
2023-01-25T21:01:16.998Z,128.80
2023-01-25T21:03:43.449Z,127.60
2023-01-25T21:06:09.959Z,123.40
2023-01-25T21:08:36.807Z,126.50
2023-01-25T21:11:03.197Z,121.47
2023-01-25T21:13:29.817Z,132.15
2023-01-25T21:16:04.371Z,143.70
2023-01-25T21:18:42.805Z,126.55
2023-01-25T21:21:14.082Z,127.47
2023-01-25T21:23:42.492Z,120.27
2023-01-25T21:26:13.659Z,116.95
2023-01-25T21:28:40.107Z,99.40
2023-01-25T21:31:14.059Z,126.93
2023-01-25T21:33:40.577Z,127.45
2023-01-25T21:36:08.622Z,121.75
2023-01-25T21:38:36.151Z,125.95
2023-01-25T21:41:03.783Z,116.82
2023-01-25T21:43:30.252Z,125.55
2023-01-25T21:46:14.730Z,119.80
2023-01-25T21:48:59.802Z,106.28
2023-01-25T21:51:35.231Z,115.03
2023-01-25T21:54:01.699Z,113.72
2023-01-25T21:56:28.927Z,105.20
2023-01-25T21:58:55.328Z,109.90
2023-01-25T22:01:22.284Z,116.30
2023-01-25T22:03:50.135Z,113.93
2023-01-25T22:06:17.473Z,118.82
2023-01-25T22:08:44.639Z,116.88
2023-01-25T22:11:11.304Z,116.82
2023-01-25T22:13:38.231Z,131.15
2023-01-25T22:16:06.953Z,125.72
2023-01-25T22:18:35.818Z,131.00
2023-01-25T22:21:04.230Z,137.30
2023-01-25T22:23:30.827Z,120.18
2023-01-25T22:26:09.006Z,118.03
2023-01-25T22:28:48.518Z,119.32
2023-01-25T22:31:22.659Z,117.85
2023-01-25T22:33:49.926Z,127.10
2023-01-25T22:36:17.554Z,124.22
2023-01-25T22:38:44.178Z,127.10
2023-01-25T22:41:16.771Z,149.18
2023-01-25T22:43:43.744Z,152.20
2023-01-25T22:46:15.223Z,120.85
2023-01-25T22:48:41.707Z,133.02
2023-01-25T22:51:16.696Z,141.85
2023-01-25T22:53:43.311Z,132.43
2023-01-25T22:56:18.804Z,131.65
2023-01-25T22:58:45.957Z,130.27
2023-01-25T23:01:15.645Z,128.35
2023-01-25T23:03:42.519Z,117.00
2023-01-25T23:06:12.476Z,129.10
2023-01-25T23:08:40.312Z,126.22
2023-01-25T23:11:18.626Z,130.00
2023-01-25T23:14:05.652Z,117.18
2023-01-25T23:16:32.957Z,134.95
2023-01-25T23:18:59.890Z,137.50
2023-01-25T23:21:27.786Z,144.57
2023-01-25T23:23:55.296Z,141.95
2023-01-25T23:26:22.274Z,142.98
2023-01-25T23:28:53.663Z,134.68
2023-01-25T23:31:21.758Z,119.22
2023-01-25T23:33:53.289Z,133.98
2023-01-25T23:36:27.951Z,131.52
2023-01-25T23:38:55.149Z,134.68
2023-01-25T23:41:22.756Z,130.75
2023-01-25T23:43:50.001Z,133.02
2023-01-25T23:46:17.301Z,136.50
2023-01-25T23:48:44.682Z,135.73
2023-01-25T23:51:11.500Z,132.18
2023-01-25T23:53:38.847Z,132.23
2023-01-25T23:56:13.673Z,147.98
2023-01-25T23:58:40.410Z,133.07
